»·PEaware :: N143VT KPSP-KSBP

N143VT :: KPSP-KSBP

FLIGHT INFORMATION

Flight Status: Arrived
Operator: Privately registered:
United States
More flights under this callsign
Pilot: Anonymous 16492 (16492)
Aircraft: SOCATA TBM-900
(TBM9)
More flights by this aircraft type
Origin: KPSP Palm Springs Intl
United States
Destination: KSBP San Luis Co Regl
United States
More flights between these airports :: More routes between these airports
Route: +CATH1 PSP V386 PMD V12 GVO FABEG
File this flight plan on PilotEdge
Remarks:
Altitude:
(Current/Filed)
24,000ft
Speed:
(Current/Filed)
330kts
Departed: 08-Nov-18 05:59 PM
Arrived: 08-Nov-18 07:20 PM
Distance/Time
Traveled:
221nm/1:21
Distance/Time
To Go:
Arrived

Flight Plot

Page will automatically refresh every two minutes.

Flight plan parsing failed; only flown route is shown


Map Options




Map Legend


Flown Route
Filed Route
Departure Airport
Arrival Airport
Navaid (VOR, NDB)
Fix

Horizontal Profiles

Position Reports

Time Latitude Longitude Heading Altitude Ground
Speed
08-Nov-18 17:25 33.825630 -116.508324 263 480ft 0kts
08-Nov-18 17:26 33.825630 -116.508324 263 480ft 0kts
08-Nov-18 17:27 33.825630 -116.508324 263 480ft 0kts
08-Nov-18 17:28 33.825630 -116.508324 263 480ft 0kts
08-Nov-18 17:29 33.825630 -116.508324 263 480ft 0kts
08-Nov-18 17:30 33.825630 -116.508324 263 480ft 0kts
08-Nov-18 17:31 33.825630 -116.508324 263 480ft 0kts
08-Nov-18 17:32 33.825630 -116.508324 263 480ft 0kts
08-Nov-18 17:33 33.825630 -116.508324 263 480ft 0kts
08-Nov-18 17:34 33.825630 -116.508324 263 480ft 0kts
08-Nov-18 17:35 33.825630 -116.508324 263 480ft 0kts
08-Nov-18 17:36 33.825630 -116.508324 263 480ft 0kts
08-Nov-18 17:37 33.825630 -116.508324 263 480ft 0kts
08-Nov-18 17:38 33.825630 -116.508324 263 480ft 0kts
08-Nov-18 17:39 33.825630 -116.508324 263 480ft 0kts
08-Nov-18 17:40 33.825630 -116.508324 263 480ft 0kts
08-Nov-18 17:41 33.825630 -116.508324 263 480ft 0kts
08-Nov-18 17:42 33.825630 -116.508324 263 480ft 0kts
08-Nov-18 17:43 33.825630 -116.508324 263 480ft 0kts
08-Nov-18 17:44 33.825630 -116.508324 263 480ft 0kts
08-Nov-18 17:45 33.825630 -116.508324 263 480ft 0kts
08-Nov-18 17:46 33.825630 -116.508324 263 480ft 0kts
08-Nov-18 17:47 33.825630 -116.508324 263 480ft 0kts
08-Nov-18 17:48 33.825630 -116.508324 263 480ft 0kts
08-Nov-18 17:49 33.825630 -116.508324 263 480ft 0kts
08-Nov-18 17:50 33.825630 -116.508324 263 480ft 0kts
08-Nov-18 17:51 33.825630 -116.508324 263 480ft 0kts
08-Nov-18 17:52 33.825630 -116.508324 263 480ft 0kts
08-Nov-18 17:53 33.825630 -116.508324 263 480ft 0kts
08-Nov-18 17:54 33.825471 -116.508870 161 480ft 5kts
08-Nov-18 17:55 33.825341 -116.507718 91 480ft 0kts
08-Nov-18 17:56 33.825341 -116.507717 91 480ft 0kts
08-Nov-18 17:57 33.825378 -116.506252 82 480ft 6kts
08-Nov-18 17:58 33.822867 -116.503605 142 480ft 17kts
08-Nov-18 17:59 33.818630 -116.499858 132 480ft 16kts
08-Nov-18 18:00 33.818524 -116.499026 89 480ft 0kts
08-Nov-18 18:01 33.818698 -116.498314 39 480ft 7kts
08-Nov-18 18:02 33.833469 -116.511963 325 748ft 144kts
08-Nov-18 18:03 33.868119 -116.547626 321 2039ft 178kts
08-Nov-18 18:04 33.902147 -116.580616 353 4272ft 150kts
08-Nov-18 18:05 33.923459 -116.547417 109 6171ft 176kts
08-Nov-18 18:06 33.884240 -116.509534 95 7025ft 212kts
08-Nov-18 18:07 33.870122 -116.437695 103 7624ft 223kts
08-Nov-18 18:08 33.843913 -116.369108 111 8310ft 228kts
08-Nov-18 18:09 33.816315 -116.303673 113 9439ft 212kts
08-Nov-18 18:10 33.788509 -116.245303 145 10731ft 208kts
08-Nov-18 18:11 33.763639 -116.276649 318 12086ft 166kts
08-Nov-18 18:12 33.796470 -116.312986 321 13473ft 158kts
08-Nov-18 18:13 33.827780 -116.347580 321 14827ft 150kts
08-Nov-18 18:14 33.857651 -116.380500 321 16181ft 142kts
08-Nov-18 18:15 33.885711 -116.411138 321 17527ft 136kts
08-Nov-18 18:16 33.914118 -116.441045 321 19666ft 135kts
08-Nov-18 18:17 33.947286 -116.459671 337 21737ft 136kts
08-Nov-18 18:18 33.984924 -116.474581 336 23025ft 170kts
08-Nov-18 18:19 34.038059 -116.495393 337 23009ft 224kts
08-Nov-18 18:20 34.099523 -116.519428 338 22999ft 241kts
08-Nov-18 18:21 34.163390 -116.544464 338 23021ft 248kts
08-Nov-18 18:22 34.226788 -116.569302 337 23836ft 224kts
08-Nov-18 18:23 34.286312 -116.592783 337 24041ft 238kts
08-Nov-18 18:24 34.349677 -116.617738 337 24056ft 245kts
08-Nov-18 18:25 34.390852 -116.664758 276 24105ft 249kts
08-Nov-18 18:26 34.400810 -116.739560 285 24085ft 249kts
08-Nov-18 18:27 34.415021 -116.820037 286 24088ft 255kts
08-Nov-18 18:28 34.430130 -116.904430 286 24080ft 264kts
08-Nov-18 18:29 34.445555 -116.990848 285 24047ft 268kts
08-Nov-18 18:30 34.461127 -117.078548 284 24023ft 269kts
08-Nov-18 18:31 34.476670 -117.166543 283 24032ft 268kts
08-Nov-18 18:32 34.492041 -117.253883 283 24067ft 268kts
08-Nov-18 18:33 34.507341 -117.341195 284 24091ft 268kts
08-Nov-18 18:34 34.522730 -117.429385 284 24097ft 268kts
08-Nov-18 18:35 34.537949 -117.517000 283 24096ft 268kts
08-Nov-18 18:36 34.553055 -117.604349 283 24096ft 268kts
08-Nov-18 18:37 34.567181 -117.686393 283 24097ft 269kts
08-Nov-18 18:38 34.578302 -117.751230 283 24091ft 269kts
08-Nov-18 18:39 34.592164 -117.832341 283 24083ft 269kts
08-Nov-18 18:40 34.606909 -117.919021 283 24080ft 269kts
08-Nov-18 18:41 34.621120 -118.002919 283 24080ft 269kts
08-Nov-18 18:42 34.629549 -118.089865 269 24089ft 272kts
08-Nov-18 18:43 34.623973 -118.178307 269 24080ft 273kts
08-Nov-18 18:44 34.618023 -118.269055 269 24079ft 273kts
08-Nov-18 18:45 34.612026 -118.359383 269 24069ft 273kts
08-Nov-18 18:46 34.606030 -118.448705 269 24031ft 273kts
08-Nov-18 18:47 34.599815 -118.540293 269 23989ft 274kts
08-Nov-18 18:48 34.593531 -118.631830 269 23962ft 273kts
08-Nov-18 18:49 34.587674 -118.716265 268 23953ft 274kts
08-Nov-18 18:50 34.581797 -118.800173 268 23936ft 274kts
08-Nov-18 18:51 34.575337 -118.891232 269 23920ft 274kts
08-Nov-18 18:52 34.568786 -118.982790 269 23911ft 275kts
08-Nov-18 18:53 34.561890 -119.078440 269 22822ft 298kts
08-Nov-18 18:54 34.554680 -119.177024 269 21371ft 305kts
08-Nov-18 18:55 34.547243 -119.277584 269 19904ft 307kts
08-Nov-18 18:56 34.540284 -119.370613 269 18500ft 296kts
08-Nov-18 18:57 34.532908 -119.468368 269 17010ft 295kts
08-Nov-18 18:58 34.525469 -119.565840 268 15528ft 296kts
08-Nov-18 18:59 34.517874 -119.664238 268 14058ft 297kts
08-Nov-18 19:00 34.510581 -119.757553 268 13960ft 273kts
08-Nov-18 19:01 34.514798 -119.846944 278 13961ft 263kts
08-Nov-18 19:02 34.520805 -119.935049 278 13972ft 262kts
08-Nov-18 19:03 34.526684 -120.021933 278 13983ft 262kts
08-Nov-18 19:04 34.545744 -120.102407 320 13364ft 253kts
08-Nov-18 19:05 34.599205 -120.153262 323 10771ft 243kts
08-Nov-18 19:06 34.651364 -120.201341 322 8974ft 220kts
08-Nov-18 19:07 34.699704 -120.245876 322 8986ft 214kts
08-Nov-18 19:08 34.738735 -120.281885 322 8986ft 212kts
08-Nov-18 19:09 34.785160 -120.324758 322 8403ft 209kts
08-Nov-18 19:10 34.831287 -120.367409 323 6601ft 210kts
08-Nov-18 19:11 34.877525 -120.410229 323 4807ft 209kts
08-Nov-18 19:12 34.921516 -120.451042 323 3993ft 188kts
08-Nov-18 19:13 34.969389 -120.495507 323 3999ft 185kts
08-Nov-18 19:14 35.003590 -120.527156 328 3996ft 186kts
08-Nov-18 19:15 35.047537 -120.506255 35 3378ft 178kts
08-Nov-18 19:16 35.086207 -120.471416 35 3302ft 173kts
08-Nov-18 19:17 35.126679 -120.456923 317 2923ft 159kts
08-Nov-18 19:18 35.151771 -120.494293 307 2900ft 144kts
08-Nov-18 19:19 35.176120 -120.533986 307 2529ft 139kts
08-Nov-18 19:20 35.192842 -120.564313 301 2093ft 115kts
08-Nov-18 19:21 35.211649 -120.595711 303 1325ft 117kts
08-Nov-18 19:22 35.228866 -120.625851 305 380ft 88kts
08-Nov-18 19:23 35.237695 -120.641140 25 214ft 6kts
08-Nov-18 19:24 35.237484 -120.638817 79 214ft 5kts
08-Nov-18 19:25 35.237862 -120.637999 266 214ft 0kts
08-Nov-18 19:26 35.237862 -120.637998 266 214ft 0kts
08-Nov-18 19:27 35.237862 -120.637998 266 214ft 0kts
08-Nov-18 19:28 35.237862 -120.637998 266 214ft 0kts

Navigation Log

Ident Type
Flight plan parsing failed, navigation log unavailable